Time,TemperatureF,DewpointF,PressureIn,WindDirection,WindDirectionDegrees,WindSpeedMPH,WindSpeedGustMPH,Humidity,HourlyPrecipIn,Conditions,Clouds,dailyrainin,SoftwareType,DateUTC
2013-11-04 00:22:00,57.0,52.0,29.82,SSE,148,0.0,-999.0,82,8.68,,,-99.99,,2013-11-04 07:22:00,
2013-11-04 00:52:00,57.0,53.0,29.83,South,176,0.0,-999.0,85,8.68,,,-99.99,,2013-11-04 07:52:00,
2013-11-04 01:21:00,57.0,53.0,29.83,SSE,159,0.0,-999.0,87,8.68,,,-99.99,,2013-11-04 08:21:00,
2013-11-04 01:52:00,56.0,53.0,29.82,SSE,163,0.0,-999.0,89,8.68,,,-99.99,,2013-11-04 08:52:00,
2013-11-04 02:21:00,55.0,52.0,29.82,South,177,0.0,-999.0,91,8.68,,,-99.99,,2013-11-04 09:21:00,
2013-11-04 02:53:00,55.0,52.0,29.81,SSW,212,0.0,-999.0,91,8.68,,,-99.99,,2013-11-04 09:53:00,
2013-11-04 03:23:00,55.0,53.0,29.81,SSE,167,0.0,-999.0,92,8.68,,,-99.99,,2013-11-04 10:23:00,
2013-11-04 03:52:00,54.0,52.0,29.81,SSE,149,2.0,-999.0,93,8.68,,,-99.99,,2013-11-04 10:52:00,
2013-11-04 04:22:00,54.0,52.0,29.81,SSW,193,0.0,-999.0,93,8.68,,,-99.99,,2013-11-04 11:22:00,
2013-11-04 04:52:00,54.0,48.0,29.78,South,187,0.0,-999.0,79,8.68,,,-99.99,,2013-11-04 11:52:00,
2013-11-04 05:22:00,54.0,53.0,29.82,SSE,150,0.0,-999.0,95,8.68,,,-99.99,,2013-11-04 12:22:00,
2013-11-04 05:52:00,54.0,53.0,29.83,SSE,150,0.0,-999.0,96,8.68,,,-99.99,,2013-11-04 12:52:00,
2013-11-04 06:21:00,53.0,52.0,29.83,South,173,0.0,-999.0,96,8.68,,,-99.99,,2013-11-04 13:21:00,
2013-11-04 06:52:00,54.0,49.0,29.80,South,170,0.0,-999.0,83,8.68,,,-99.99,,2013-11-04 13:52:00,
2013-11-04 07:11:00,54.0,53.0,29.84,South,170,0.0,-999.0,97,8.68,,,-99.99,,2013-11-04 14:11:00,
2013-11-04 07:22:00,54.0,49.0,29.80,SSE,153,0.0,-999.0,82,8.68,,,-99.99,,2013-11-04 14:22:00,
2013-11-04 07:52:00,55.0,54.0,29.85,South,191,0.0,-999.0,96,8.68,,,-99.99,,2013-11-04 14:52:00,
2013-11-04 08:22:00,56.0,50.0,29.83,SE,143,4.0,-999.0,80,8.68,,,-99.99,,2013-11-04 15:22:00,
2013-11-04 08:52:00,57.0,55.0,29.87,SE,127,0.0,-999.0,92,8.68,,,-99.99,,2013-11-04 15:52:00,
2013-11-04 09:23:00,61.0,56.0,29.88,SSE,159,0.0,-999.0,83,8.68,,,-99.99,,2013-11-04 16:23:00,
2013-11-04 09:53:00,63.0,55.0,29.88,South,186,0.0,-999.0,75,8.68,,,-99.99,,2013-11-04 16:53:00,
2013-11-04 10:22:00,65.0,55.0,29.87,SE,131,0.0,-999.0,69,8.68,,,-99.99,,2013-11-04 17:22:00,
2013-11-04 10:53:00,67.0,54.0,29.86,SSE,148,0.0,-999.0,63,8.68,,,-99.99,,2013-11-04 17:53:00,
2013-11-04 11:23:00,68.0,54.0,29.86,SE,141,0.0,-999.0,60,8.68,,,-99.99,,2013-11-04 18:23:00,
2013-11-04 11:52:00,69.0,52.0,29.85,SE,141,0.0,-999.0,55,8.68,,,-99.99,,2013-11-04 18:52:00,
2013-11-04 12:22:00,70.0,52.0,29.83,South,177,3.0,-999.0,52,8.68,,,-99.99,,2013-11-04 19:22:00,
2013-11-04 12:52:00,71.0,50.0,29.80,SSE,158,0.0,-999.0,48,8.68,,,-99.99,,2013-11-04 19:52:00,
2013-11-04 13:22:00,72.0,51.0,29.79,South,180,0.0,-999.0,47,8.68,,,-99.99,,2013-11-04 20:22:00,
2013-11-04 13:52:00,74.0,50.0,29.78,SSE,165,0.0,-999.0,43,8.68,,,-99.99,,2013-11-04 20:52:00,
2013-11-04 14:22:00,75.0,50.0,29.77,SSE,152,0.0,-999.0,41,8.68,,,-99.99,,2013-11-04 21:22:00,
2013-11-04 14:54:00,74.0,49.0,29.77,ESE,114,0.0,-999.0,42,8.68,,,-99.99,,2013-11-04 21:54:00,
2013-11-04 15:23:00,74.0,48.0,29.76,SE,136,0.0,-999.0,40,8.68,,,-99.99,,2013-11-04 22:23:00,
2013-11-04 15:53:00,73.0,48.0,29.76,SE,146,0.0,-999.0,41,8.68,,,-99.99,,2013-11-04 22:53:00,
2013-11-04 16:22:00,74.0,47.0,29.75,South,176,0.0,-999.0,39,8.68,,,-99.99,,2013-11-04 23:22:00,
2013-11-04 16:53:00,74.0,47.0,29.75,South,181,0.0,-999.0,38,8.68,,,-99.99,,2013-11-04 23:53:00,
2013-11-04 17:22:00,71.0,45.0,29.75,South,181,0.0,-999.0,39,8.68,,,-99.99,,2013-11-05 00:22:00,
2013-11-04 17:52:00,69.0,44.0,29.75,South,181,0.0,-999.0,41,8.68,,,-99.99,,2013-11-05 00:52:00,
2013-11-04 18:21:00,68.0,45.0,29.75,South,181,0.0,-999.0,44,8.68,,,-99.99,,2013-11-05 01:21:00,
2013-11-04 18:52:00,67.0,46.0,29.75,South,181,0.0,-999.0,46,8.68,,,-99.99,,2013-11-05 01:52:00,
2013-11-04 19:22:00,64.0,37.0,29.72,South,181,0.0,-999.0,37,8.68,,,-99.99,,2013-11-05 02:22:00,
2013-11-04 19:52:00,65.0,47.0,29.76,South,181,0.0,-999.0,52,8.68,,,-99.99,,2013-11-05 02:52:00,
2013-11-04 20:22:00,66.0,47.0,29.76,South,181,0.0,-999.0,50,8.68,,,-99.99,,2013-11-05 03:22:00,
2013-11-04 20:54:00,65.0,47.0,29.76,South,181,0.0,-999.0,53,8.68,,,-99.99,,2013-11-05 03:54:00,
2013-11-04 21:13:00,65.0,48.0,29.77,South,181,0.0,-999.0,54,8.68,,,-99.99,,2013-11-05 04:13:00,
2013-11-04 21:23:00,65.0,48.0,29.78,South,181,0.0,-999.0,55,8.68,,,-99.99,,2013-11-05 04:23:00,
2013-11-04 21:53:00,65.0,50.0,29.78,SSW,193,6.0,-999.0,59,8.68,,,-99.99,,2013-11-05 04:53:00,
2013-11-04 22:23:00,65.0,52.0,29.78,South,176,0.0,-999.0,63,8.68,,,-99.99,,2013-11-05 05:23:00,
2013-11-04 22:54:00,63.0,52.0,29.78,SSE,166,0.0,-999.0,68,8.68,,,-99.99,,2013-11-05 05:54:00,
2013-11-04 23:21:00,62.0,52.0,29.78,SSE,167,3.0,-999.0,71,8.68,,,-99.99,,2013-11-05 06:21:00,
2013-11-04 23:52:00,62.0,53.0,29.78,ESE,111,0.0,-999.0,73,8.68,,,-99.99,,2013-11-05 06:52:00,